Login to view Products
 
Thursday, November 26, 2020 (03:55 UTC)
Al Ain International Airport
ICAO: OMAL
IATA: AAN
  • METAR OMAL 260300Z 14009KT CAVOK 20/09 Q1019 NOSIG=
  • TAF OMAL 252300Z 2600/2706 09010KT CAVOK BECMG 2600/2602 15008KT BECMG 2611/2613 09012KT=
D:\Input Parser\Destinations\Final\23\OMALL00062300404309340.txt
1
Last Updated:
Wind Dir/Speed:
Temperature:
Rel. Humidity:
Pressure:
Visibility: